EDDT/TXL METAR and TAF weather

Enter ICAO airport designator
Station Type Date Time Source
EDDT METAR 2019/04/25 21:50 UTC NOAA

EDDT 252150Z 08007KT 050V110 CAVOK 18/04 Q1010


Station Type Date Time Source
EDDT Decoded METAR 2019/04/25 21:50 UTC NOAA

Berlin-Tegel, Germany (EDDT) 52-34N 013-19E 37M
Apr 25, 2019 - 05:50 PM EDT / 2019.04.25 2150 UTC
Wind: from the E (080 degrees) at 8 MPH (7 KT) (direction variable):0
Visibility: greater than 7 mile(s):0
Temperature: 64 F (18 C)
Dew Point: 39 F (4 C)
Relative Humidity: 39%
Pressure (altimeter): 29.83 in. Hg (1010 hPa)
ob: EDDT 252150Z 08007KT 050V110 CAVOK 18/04 Q1010
cycle: 22

Station Type Date Time Source
EDDT TAF 2019/04/25 18:27 UTC NOAA

TAF EDDT 251700Z 2518/2618 09006KT CAVOK
BECMG 2608/2610 27009KT

Example: see airport list